KBAD/BAD METAR and TAF weather

Enter ICAO airport designator
Station Type Date Time Source
KBAD METAR 2020/01/22 20:56 UTC NOAA

KBAD 222056Z 13010KT 10SM -RA OVC007 03/03 A3010 RMK AO2A RAB1424 SLPNO P0002 60010 T00290029


Station Type Date Time Source
KBAD Decoded METAR 2020/01/22 20:56 UTC NOAA

Barksdale Air Force Base, LA, United States (KBAD) 32-30N 093-40W
Jan 22, 2020 - 03:56 PM EST / 2020.01.22 2056 UTC
Wind: from the SE (130 degrees) at 12 MPH (10 KT):0
Visibility: 10 mile(s):0
Sky conditions: overcast
Weather: light rain
Precipitation last hour: 0.02 inches
Temperature: 37.2 F (2.9 C)
Dew Point: 37.2 F (2.9 C)
Relative Humidity: 100%
Pressure (altimeter): 30.1 in. Hg (1019 hPa)
ob: KBAD 222056Z 13010KT 10SM -RA OVC007 03/03 A3010 RMK AO2A RAB1424 SLPNO P0002 60010 T00290029
cycle: 21

Station Type Date Time Source
KBAD TAF 2020/01/22 18:06 UTC NOAA

TAF KBAD 221800Z 2218/2324 14012KT 9000 -RA BR OVC008 QNH3004INS
BECMG 2220/2222 14012KT 4800 -RA BR OVC006 QNH2988INS
BECMG 2312/2313 13006KT 1200 BR VCSH OVC003 QNH2988INS
BECMG 2317/2318 35012KT 9999 NSW OVC007 QNH2991INS TX09/2318Z TN02/2218Z

Example: see airport list